^^
Datos históricos de la estación: Murcia-Puente Tocinos
Diario Informe para Diciembre 21, 2019 Unidades:  Ingés    Métrico   Ambas
Diario Semanal Mensual Anual
  Máxima: Mínima: Promedio:
Temperatura: 74.7 °F 58.1 °F 67.5 °F
Punto de rocio: 57.6 °F 39.4 °F 53.2 °F
Humedad: 86.6% 32% 63%
Velocidad viento: 16.8mph 0mph 7.7mph
Racha viento: 31.1mph - -
Viento- - Sur
Presión: 29.8 in 29.6 in -
Precipitación: 0 in    
 
 
Tabla de datos para Diciembre 21, 2019
Hora Temperatura Punto de rocio Presión Viento Velocidad viento Racha viento Humedad Intensidad lluvia(por hora) Nubes
00:04 66.4 °F 55.6 °F 29.6 in SSO 9.9 mph 16 mph 68.5% 0 in
00:09 66.7 °F 55.6 °F 29.6 in SSO 9.7 mph 19.7 mph 67.4% 0 in
00:14 67.5 °F 55.8 °F 29.6 in SSO 10.5 mph 20 mph 66.1% 0 in
00:19 67.6 °F 55.6 °F 29.6 in SSO 11.2 mph 18.5 mph 65.2% 0 in
00:24 67.8 °F 55.6 °F 29.6 in SSO 11.3 mph 19 mph 65% 0 in
00:29 67.6 °F 55.6 °F 29.6 in SSO 11.4 mph 19 mph 65% 0 in
00:34 67.5 °F 55.6 °F 29.6 in SSO 10.7 mph 19 mph 65.5% 0 in
00:39 67.1 °F 55.6 °F 29.6 in SSO 10.2 mph 17.3 mph 66.4% 0 in
00:44 66.7 °F 55.4 °F 29.6 in SSO 9.9 mph 17 mph 67% 0 in
00:49 66.6 °F 55.6 °F 29.6 in SO 9.7 mph 14 mph 67.8% 0 in
00:54 66.4 °F 55.4 °F 29.6 in SO 8.2 mph 11.5 mph 68% 0 in
00:59 66.2 °F 55.2 °F 29.6 in SO 6.9 mph 12 mph 68% 0 in
01:04 66 °F 55.2 °F 29.6 in SSO 6.1 mph 11.8 mph 68% 0 in
01:09 66.2 °F 55.2 °F 29.6 in SSO 5.4 mph 13 mph 68% 0 in
01:14 66.2 °F 55.2 °F 29.6 in SO 6.2 mph 13 mph 68% 0 in
01:19 66 °F 55.2 °F 29.6 in SSO 6.9 mph 10.4 mph 68% 0 in
01:24 66 °F 55.2 °F 29.6 in SO 6.4 mph 10 mph 68% 0 in
01:29 66 °F 55.2 °F 29.6 in SSO 5.9 mph 10 mph 68% 0 in
01:34 65.8 °F 55 °F 29.6 in SSO 5 mph 8 mph 68% 0 in
01:39 65.8 °F 55 °F 29.6 in SSE 4.3 mph 7 mph 68% 0 in
01:44 65.8 °F 55 °F 29.6 in Sur 4 mph 6.2 mph 68% 0 in
01:49 66 °F 55.2 °F 29.6 in SSO 3.6 mph 8.1 mph 68% 0 in
01:54 66.4 °F 55 °F 29.6 in SO 4.4 mph 9.2 mph 67.1% 0 in
01:59 66.6 °F 55.2 °F 29.6 in SSO 5.2 mph 9 mph 67% 0 in
02:04 66.6 °F 55.2 °F 29.6 in SSO 4.9 mph 8 mph 67% 0 in
02:09 66.6 °F 55.4 °F 29.6 in SSO 4.7 mph 7 mph 67% 0 in
02:14 66.7 °F 55 °F 29.6 in Sur 4.3 mph 6 mph 66.2% 0 in
02:19 66.7 °F 55 °F 29.6 in Sur 4 mph 6 mph 66.1% 0 in
02:24 66.6 °F 55.2 °F 29.6 in Sur 3.8 mph 6 mph 67% 0 in
02:29 66.6 °F 55.2 °F 29.6 in SSO 3.6 mph 5 mph 67% 0 in
02:34 66.4 °F 55 °F 29.6 in SSO 3 mph 5 mph 67% 0 in
02:39 66 °F 55 °F 29.6 in SSE 2.4 mph 5 mph 67.8% 0 in
02:44 65.7 °F 55 °F 29.6 in ENE 1.2 mph 3.5 mph 68.4% 0 in
02:49 65.5 °F 55 °F 29.6 in Calm   2 mph 69% 0 in
02:54 65.1 °F 55 °F 29.6 in Calm     69.7% 0 in
02:59 64.9 °F 54.9 °F 29.6 in Calm     70.3% 0 in
03:04 64.8 °F 55 °F 29.6 in Calm   2 mph 71% 0 in
03:09 64.8 °F 55 °F 29.6 in Calm   2.4 mph 71% 0 in
03:14 64.8 °F 55.2 °F 29.6 in Calm   2.3 mph 71% 0 in
03:19 64.8 °F 55 °F 29.6 in Calm   5.2 mph 70.7% 0 in
03:24 64.2 °F 54.9 °F 29.6 in NNE 1.2 mph 6.4 mph 71.4% 0 in
03:29 63.7 °F 54.7 °F 29.6 in NNE 2.4 mph 7 mph 72.5% 0 in
03:34 63 °F 54.5 °F 29.6 in NNE 3.2 mph 6.9 mph 74.2% 0 in
03:39 62.4 °F 54.7 °F 29.6 in NE 4 mph 7 mph 75.5% 0 in
03:44 62.4 °F 54.9 °F 29.6 in NE 4.3 mph 7 mph 76% 0 in
03:49 62.4 °F 54.9 °F 29.6 in ENE 4.7 mph 7 mph 76% 0 in
03:54 62.4 °F 54.9 °F 29.6 in ENE 4.5 mph 7 mph 76% 0 in
03:59 62.8 °F 55 °F 29.6 in NE 4.3 mph 6.2 mph 76% 0 in
04:04 62.8 °F 54.7 °F 29.6 in NNE 3.9 mph 6 mph 75% 0 in
04:09 62.8 °F 55 °F 29.6 in NE 3.6 mph 6.2 mph 75.7% 0 in
04:14 63 °F 55 °F 29.6 in NE 3.8 mph 6.4 mph 75.6% 0 in
04:19 63.3 °F 55.2 °F 29.6 in NE 4 mph 7 mph 74.6% 0 in
04:24 64 °F 55.2 °F 29.6 in ENE 4 mph 6 mph 73.3% 0 in
04:29 64.6 °F 55.4 °F 29.6 in ENE 4 mph 6.9 mph 71.9% 0 in
04:34 64.9 °F 55.2 °F 29.6 in NE 3.4 mph 7 mph 70.7% 0 in
04:39 64.8 °F 55.2 °F 29.7 in North 2.9 mph 4.6 mph 71% 0 in
04:44 64.4 °F 55 °F 29.7 in North 2.4 mph 5 mph 71.5% 0 in
04:49 64 °F 55 °F 29.7 in NE 2 mph 5 mph 72.6% 0 in
04:54 63.7 °F 55 °F 29.7 in ENE 2.2 mph 5.2 mph 73.4% 0 in
04:59 63.3 °F 55 °F 29.6 in NNE 2.4 mph 5.2 mph 74% 0 in
05:04 63.1 °F 54.7 °F 29.6 in North 2.7 mph 5 mph 74.3% 0 in
05:09 62.6 °F 54.7 °F 29.7 in North 2.9 mph 5.2 mph 75.6% 0 in
05:14 62.1 °F 54.9 °F 29.7 in NNE 2.9 mph 5 mph 76.8% 0 in
05:19 61.9 °F 54.9 °F 29.7 in NNE 2.9 mph 5.8 mph 77.8% 0 in
05:24 61.7 °F 54.9 °F 29.7 in North 2.6 mph 6 mph 78.1% 0 in
05:29 61.5 °F 55 °F 29.7 in NNO 2.4 mph 5 mph 79% 0 in
05:34 61.5 °F 54.9 °F 29.7 in Oeste 2.4 mph 5 mph 79% 0 in
05:39 61.5 °F 54.9 °F 29.7 in Oeste 2.4 mph 5 mph 79% 0 in
05:44 61.5 °F 54.9 °F 29.7 in Oeste 2.7 mph 5 mph 79% 0 in
05:49 61.5 °F 54.9 °F 29.7 in Oeste 2.9 mph 5 mph 79% 0 in
05:54 61.5 °F 54.9 °F 29.7 in OSO 2.6 mph 5.8 mph 79% 0 in
05:59 61.3 °F 54.9 °F 29.7 in OSO 2.4 mph 6 mph 79% 0 in
06:04 61.2 °F 54.7 °F 29.7 in SE 2.2 mph 4.7 mph 79% 0 in
06:09 60.8 °F 54.7 °F 29.7 in ESE 2 mph 5.2 mph 80% 0 in
06:14 60.4 °F 54.7 °F 29.7 in ESE 2.5 mph 5 mph 80.9% 0 in
06:19 60.4 °F 54.9 °F 29.7 in ESE 2.9 mph 4 mph 81.7% 0 in
06:24 60.3 °F 54.7 °F 29.7 in ESE 2.1 mph 3 mph 82% 0 in
06:29 60.4 °F 54.9 °F 29.7 in ESE 1.4 mph 3.6 mph 82.2% 0 in
06:34 60.8 °F 55.2 °F 29.7 in SSE 1.6 mph 5.2 mph 81.7% 0 in
06:39 61 °F 55 °F 29.7 in SE 1.8 mph 5 mph 80.9% 0 in
06:44 61 °F 55 °F 29.7 in ESE 2.7 mph 5 mph 80.7% 0 in
06:49 61 °F 55 °F 29.7 in SO 3.6 mph 5 mph 80.7% 0 in
06:54 60.8 °F 54.9 °F 29.7 in SSO 3.2 mph 5.2 mph 81% 0 in
06:59 60.8 °F 55 °F 29.7 in SSO 2.9 mph 5 mph 81% 0 in
07:04 60.6 °F 54.9 °F 29.7 in SSO 1.2 mph 3.1 mph 81% 0 in
07:09 60.4 °F 54.7 °F 29.7 in Calm   4.6 mph 81% 0 in
07:14 60.3 °F 54.5 °F 29.7 in OSO 1 mph 5 mph 81.5% 0 in
07:19 59.9 °F 54.3 °F 29.7 in OSO 2 mph 3.1 mph 82% 0 in
07:24 59.5 °F 54.1 °F 29.7 in OSO 1 mph 3.5 mph 82% 0 in
07:29 59.4 °F 54.1 °F 29.7 in Calm   4.6 mph 82.9% 0 in
07:34 59.4 °F 54.3 °F 29.7 in OSO 0.9 mph 6.2 mph 83.2% 0 in
07:39 59.4 °F 54.5 °F 29.7 in ONO 1.8 mph 6.9 mph 84% 0 in
07:44 59.5 °F 54.5 °F 29.7 in SSO 3 mph 7 mph 83.3% 0 in
07:49 59.4 °F 54.5 °F 29.7 in SO 4 mph 7 mph 83.8% 0 in
07:54 59.5 °F 54.5 °F 29.7 in Sur 2.9 mph 6 mph 83.3% 0 in
07:59 59.7 °F 54.7 °F 29.7 in Sur 2 mph 5 mph 83.4% 0 in
08:04 59.7 °F 54.5 °F 29.7 in Sur 2 mph 5 mph 83% 0 in
08:09 59.5 °F 54.5 °F 29.7 in Sur 2 mph 3.5 mph 83% 0 in
08:14 59.5 °F 54.3 °F 29.7 in Sur 1.7 mph 3 mph 82.9% 0 in
08:19 59.5 °F 54.3 °F 29.7 in Sur 1.4 mph 4.6 mph 83% 0 in
08:24 59.5 °F 54.5 °F 29.7 in SSO 1.6 mph 5.8 mph 83.4% 0 in
08:29 60.1 °F 55 °F 29.7 in OSO 1.8 mph 6 mph 83.1% 0 in
08:34 60.4 °F 54.7 °F 29.7 in ONO 2.7 mph 6.9 mph 81.5% 0 in
08:39 59.9 °F 54 °F 29.7 in ONO 3.6 mph 7.4 mph 80.4% 0 in
08:44 59.2 °F 53.8 °F 29.7 in ONO 3.8 mph 7 mph 82.1% 0 in
08:49 58.6 °F 53.6 °F 29.7 in Oeste 4 mph 6 mph 83.6% 0 in
08:54 58.5 °F 53.8 °F 29.7 in Oeste 4 mph 7.4 mph 84.7% 0 in
08:59 58.5 °F 54.3 °F 29.7 in Oeste 4 mph 7.4 mph 85.9% 0 in
09:04 58.6 °F 54.5 °F 29.7 in Oeste 4.7 mph 7 mph 85.9% 0 in
09:09 58.6 °F 54.1 °F 29.7 in SO 5.2 mph 5 mph 85% 0 in
09:14 58.5 °F 54 °F 29.7 in SO 4 mph 5.2 mph 85% 0 in
09:19 58.5 °F 54 °F 29.7 in Sur 2.9 mph 5.8 mph 85.2% 0 in
09:24 58.3 °F 54.1 °F 29.7 in SSO 2.9 mph 6 mph 85.8% 0 in
09:29 58.3 °F 53.8 °F 29.7 in NO 2.9 mph 5 mph 85% 0 in
09:34 58.1 °F 54 °F 29.7 in NO 2.7 mph 5 mph 86% 0 in
09:39 58.3 °F 54.1 °F 29.7 in NO 2.4 mph 4 mph 86% 0 in
09:44 58.5 °F 54.3 °F 29.7 in NO 2.1 mph 4.6 mph 86.4% 0 in
09:49 59 °F 55 °F 29.7 in Oeste 1.8 mph 5 mph 86.6% 0 in
09:54 59.5 °F 54.9 °F 29.7 in Oeste 2.4 mph 5 mph 84.8% 0 in
09:59 59.5 °F 54.7 °F 29.7 in SSE 2.9 mph 3.6 mph 84% 0 in
10:04 59.5 °F 54.7 °F 29.7 in Este 2.3 mph 4.6 mph 83.8% 0 in
10:09 59.5 °F 54.7 °F 29.7 in NE 1.8 mph 5 mph 83.9% 0 in
10:14 59.4 °F 54.5 °F 29.7 in NE 1.6 mph 2 mph 84% 0 in
10:19 59.4 °F 54.5 °F 29.7 in NE 1.4 mph 4.6 mph 84% 0 in
10:24 59.4 °F 54.5 °F 29.7 in NE 1.6 mph 5 mph 84% 0 in
10:29 59.4 °F 54.5 °F 29.7 in NE 1.8 mph 3.6 mph 84% 0 in
10:34 59.5 °F 54.7 °F 29.7 in NE 1.6 mph 4.6 mph 84% 0 in
10:39 59.5 °F 54.9 °F 29.7 in NNE 1.4 mph 5 mph 84.1% 0 in
10:44 59.7 °F 54.9 °F 29.7 in North 2.2 mph 5.2 mph 84% 0 in
10:49 59.7 °F 55 °F 29.7 in North 2.9 mph 5 mph 84.4% 0 in
10:54 59.9 °F 55.4 °F 29.7 in NNE 2.9 mph 5 mph 85% 0 in
10:59 59.9 °F 55.4 °F 29.7 in NE 2.9 mph 5 mph 85% 0 in
11:04 60.1 °F 55.6 °F 29.7 in NNE 2.9 mph 5 mph 85% 0 in
11:09 60.1 °F 55.6 °F 29.7 in NNE 2.9 mph 5 mph 85% 0 in
11:14 60.1 °F 55.6 °F 29.7 in NNE 3 mph 5 mph 85% 0 in
11:19 60.3 °F 55.8 °F 29.7 in NNE 3.1 mph 5 mph 85% 0 in
11:24 60.3 °F 55.8 °F 29.7 in NNO 2.5 mph 5 mph 85% 0 in
11:29 60.4 °F 55.9 °F 29.7 in NNO 2 mph 4 mph 85% 0 in
11:34 60.6 °F 56.1 °F 29.7 in NE 1.9 mph 4.7 mph 85% 0 in
11:39 61 °F 56.3 °F 29.7 in NE 1.8 mph 5.8 mph 85% 0 in
11:44 61 °F 56.5 °F 29.7 in NNE 2.4 mph 6 mph 85% 0 in
11:49 61.2 °F 56.5 °F 29.7 in NNE 2.9 mph 5.2 mph 85% 0 in
11:54 61.2 °F 56.5 °F 29.7 in North 2.9 mph 5.9 mph 84.1% 0 in
11:59 61.3 °F 56.5 °F 29.7 in North 2.9 mph 6.2 mph 84% 0 in
12:04 61.5 °F 56.7 °F 29.7 in NNE 3.7 mph 6.9 mph 84% 0 in
12:09 61.7 °F 56.8 °F 29.7 in North 4.3 mph 7 mph 84% 0 in
12:14 62.1 °F 57 °F 29.7 in NE 3.7 mph 5.9 mph 83.4% 0 in
12:19 62.8 °F 57.2 °F 29.7 in ENE 3.1 mph 6 mph 82% 0 in
12:24 63.3 °F 56.8 °F 29.7 in Este 2.7 mph 6 mph 79.6% 0 in
12:29 64.8 °F 57.2 °F 29.7 in SSE 2.4 mph 9.2 mph 76.7% 0 in
12:34 66.9 °F 57.6 °F 29.7 in Sur 4.3 mph 11.8 mph 71.8% 0 in
12:39 68.4 °F 57.6 °F 29.7 in Sur 5.2 mph 12 mph 68.1% 0 in
12:44 69.3 °F 57.4 °F 29.7 in Sur 6 mph 12 mph 65.6% 0 in
12:49 69.8 °F 57 °F 29.7 in Sur 6.9 mph 15.2 mph 63.6% 0 in
12:54 70.5 °F 56.8 °F 29.7 in SSE 7.1 mph 15 mph 61.9% 0 in
12:59 70.9 °F 55.9 °F 29.7 in SSO 7.4 mph 19.6 mph 59.1% 0 in
13:04 72 °F 55.2 °F 29.7 in SSO 8.1 mph 20 mph 55.6% 0 in
13:09 72.5 °F 55 °F 29.7 in SSO 8.7 mph 23.5 mph 54.1% 0 in
13:14 73 °F 54.9 °F 29.7 in SSO 10.7 mph 26.5 mph 52.9% 0 in
13:19 73.2 °F 54.5 °F 29.7 in SSO 12.5 mph 26 mph 52% 0 in
13:24 73.2 °F 54.5 °F 29.7 in SSO 12.7 mph 23 mph 52% 0 in
13:29 73.2 °F 54.1 °F 29.7 in SSO 13 mph 23 mph 51.4% 0 in
13:34 73.4 °F 53.8 °F 29.7 in SSO 13.4 mph 25.6 mph 50.4% 0 in
13:39 73.6 °F 53.8 °F 29.7 in SSO 13.7 mph 26 mph 50% 0 in
13:44 73.6 °F 53.6 °F 29.7 in SSO 13.7 mph 27.9 mph 49.6% 0 in
13:49 73.8 °F 53.4 °F 29.7 in SSO 13.7 mph 28 mph 49% 0 in
13:54 73.8 °F 53.4 °F 29.7 in SSO 15.2 mph 25.6 mph 49% 0 in
13:59 73.8 °F 53.2 °F 29.7 in SSO 16.8 mph 26 mph 48.5% 0 in
14:04 73.9 °F 53.1 °F 29.7 in SSO 16.1 mph 25 mph 48% 0 in
14:09 73.9 °F 53.2 °F 29.7 in SSO 15.6 mph 23 mph 48.5% 0 in
14:14 73.8 °F 52.9 °F 29.7 in SSO 14.7 mph 24.2 mph 48.1% 0 in
14:19 73.8 °F 52.9 °F 29.7 in SSO 13.7 mph 27.9 mph 48% 0 in
14:24 73.8 °F 52.9 °F 29.7 in SSO 14.2 mph 31.1 mph 48% 0 in
14:29 73.8 °F 52.7 °F 29.7 in SSO 14.7 mph 31 mph 48% 0 in
14:34 73.6 °F 52.7 °F 29.7 in SSO 14.4 mph 23.5 mph 48% 0 in
14:39 73.6 °F 52.7 °F 29.7 in SSO 14 mph 24.2 mph 48% 0 in
14:44 73.6 °F 52.7 °F 29.7 in SSO 14.6 mph 27.6 mph 48.1% 0 in
14:49 73.4 °F 52.7 °F 29.7 in SSO 15.2 mph 28.8 mph 48.2% 0 in
14:54 73.6 °F 52.7 °F 29.7 in SSO 14.9 mph 29 mph 48% 0 in
14:59 73.6 °F 52.7 °F 29.7 in SSO 14.7 mph 29.9 mph 48.2% 0 in
15:04 73.6 °F 53.1 °F 29.7 in SSO 14.7 mph 30 mph 48.6% 0 in
15:09 73.6 °F 53.1 °F 29.7 in SSO 14.7 mph 24.2 mph 48.6% 0 in
15:14 73.6 °F 53.1 °F 29.7 in SSO 14.6 mph 24 mph 48.8% 0 in
15:19 73.8 °F 52.9 °F 29.7 in SSO 14.5 mph 23.5 mph 48% 0 in
15:24 73.8 °F 52.9 °F 29.7 in SSO 14 mph 23 mph 48.2% 0 in
15:29 73.8 °F 52.9 °F 29.7 in SSO 13.7 mph 24.6 mph 48% 0 in
15:34 73.9 °F 53.1 °F 29.7 in SSO 13.6 mph 25 mph 48% 0 in
15:39 73.8 °F 52.9 °F 29.7 in SSO 13.5 mph 22 mph 48% 0 in
15:44 73.9 °F 52.9 °F 29.7 in SSO 13.2 mph 25.3 mph 48% 0 in
15:49 74.1 °F 53.2 °F 29.7 in SSO 13 mph 25 mph 48% 0 in
15:54 74.1 °F 53.2 °F 29.7 in SSO 13.2 mph 27.6 mph 48% 0 in
15:59 74.3 °F 53.2 °F 29.6 in SSO 13.5 mph 28 mph 48% 0 in
16:04 74.3 °F 53.2 °F 29.6 in SSO 13.2 mph 23 mph 48% 0 in
16:09 74.5 °F 53.2 °F 29.7 in SSO 13 mph 27.3 mph 47.7% 0 in
16:14 74.7 °F 53.1 °F 29.7 in SSO 13.9 mph 29.1 mph 47.1% 0 in
16:19 74.5 °F 53.2 °F 29.7 in SSO 14.7 mph 29 mph 47.5% 0 in
16:24 74.7 °F 53.1 °F 29.7 in SSO 14.1 mph 25 mph 47.1% 0 in
16:29 74.5 °F 53.4 °F 29.6 in Sur 13.5 mph 21.3 mph 48% 0 in
16:34 74.1 °F 53.4 °F 29.6 in Sur 12 mph 21.3 mph 48.6% 0 in
16:39 73.9 °F 53.6 °F 29.6 in Sur 10.7 mph 21 mph 49% 0 in
16:44 73.8 °F 53.4 °F 29.6 in Sur 11.2 mph 25.6 mph 49% 0 in
16:49 73.8 °F 53.4 °F 29.6 in SSO 11.8 mph 26 mph 49% 0 in
16:54 73.9 °F 53.6 °F 29.6 in SSO 13 mph 23.5 mph 49% 0 in
16:59 74.1 °F 53.6 °F 29.6 in SSO 14 mph 25.3 mph 49% 0 in
17:04 74.1 °F 53.6 °F 29.6 in SSO 13.9 mph 25 mph 49% 0 in
17:09 74.1 °F 53.8 °F 29.6 in SSO 13.7 mph 27.6 mph 49% 0 in
17:14 74.1 °F 53.8 °F 29.6 in SSO 13.7 mph 28 mph 49% 0 in
17:19 73.9 °F 53.6 °F 29.6 in SSO 13.7 mph 23 mph 49% 0 in
17:24 73.9 °F 54 °F 29.7 in Sur 12.4 mph 18.4 mph 49.5% 0 in
17:29 73 °F 54.5 °F 29.7 in Sur 11.2 mph 16 mph 52.3% 0 in
17:34 72 °F 54.7 °F 29.7 in Sur 9.2 mph 13 mph 54.6% 0 in
17:39 71.8 °F 54 °F 29.7 in SSO 7.4 mph 22.3 mph 53.7% 0 in
17:44 72.9 °F 53.6 °F 29.7 in SSO 8.6 mph 22.3 mph 50.7% 0 in
17:49 73.6 °F 53.6 °F 29.7 in SSO 9.7 mph 22 mph 49.7% 0 in
17:54 73.8 °F 53.2 °F 29.7 in SSO 11.2 mph 25.3 mph 49% 0 in
17:59 73.9 °F 53.2 °F 29.7 in SSO 12.5 mph 25.6 mph 48.6% 0 in
18:04 73.9 °F 53.1 °F 29.7 in SSO 13.3 mph 26 mph 48% 0 in
18:09 73.9 °F 53.1 °F 29.7 in SSO 14 mph 25.3 mph 48% 0 in
18:14 73.9 °F 53.1 °F 29.6 in SO 14 mph 25 mph 48% 0 in
18:19 73.9 °F 53.1 °F 29.6 in SSO 14 mph 29.9 mph 48% 0 in
18:24 74.1 °F 53.2 °F 29.7 in SSO 14.4 mph 30 mph 48% 0 in
18:29 74.1 °F 53.2 °F 29.7 in SSO 14.7 mph 27.9 mph 48% 0 in
18:34 74.1 °F 52.9 °F 29.7 in SSO 15.2 mph 28 mph 47.3% 0 in
18:39 74.1 °F 52.5 °F 29.7 in SSO 15.6 mph 25 mph 47% 0 in
18:44 74.1 °F 52.7 °F 29.7 in SO 15.4 mph 25 mph 47.3% 0 in
18:49 73.9 °F 53.1 °F 29.7 in SSO 15.2 mph 24 mph 48% 0 in
18:54 73.8 °F 52.9 °F 29.7 in SO 13.7 mph 22 mph 48% 0 in
18:59 73.8 °F 52.9 °F 29.7 in SSO 12.5 mph 21 mph 48% 0 in
19:04 73.8 °F 52.9 °F 29.7 in SSO 11.9 mph 21 mph 48% 0 in
19:09 73.8 °F 52.9 °F 29.7 in SSO 11.4 mph 19 mph 48% 0 in
19:14 73.8 °F 52.9 °F 29.7 in SSO 11.4 mph 22.3 mph 48% 0 in
19:19 73.8 °F 52.5 °F 29.7 in SSO 11.4 mph 22 mph 47.4% 0 in
19:24 73.9 °F 52.3 °F 29.7 in SO 11.6 mph 23.5 mph 47% 0 in
19:29 73.9 °F 52.3 °F 29.7 in SSO 11.8 mph 23 mph 47% 0 in
19:34 73.8 °F 52.3 °F 29.7 in SSO 12.1 mph 23 mph 47.2% 0 in
19:39 73.8 °F 52.5 °F 29.7 in SSO 12.3 mph 23 mph 47.5% 0 in
19:44 73.8 °F 52.5 °F 29.7 in SSO 12.4 mph 23 mph 47.6% 0 in
19:49 73.4 °F 52.5 °F 29.7 in SSO 12.5 mph 19 mph 48% 0 in
19:54 73.4 °F 52.5 °F 29.7 in SSO 11.9 mph 19 mph 48% 0 in
19:59 73.2 °F 52.2 °F 29.7 in SO 11.4 mph 21.3 mph 47.5% 0 in
20:04 73.4 °F 52 °F 29.7 in SSO 11.6 mph 25.3 mph 47% 0 in
20:09 73.6 °F 51.8 °F 29.7 in SSO 11.8 mph 25.3 mph 46.5% 0 in
20:14 73.6 °F 52 °F 29.7 in SO 12.1 mph 21.9 mph 46.9% 0 in
20:19 73.6 °F 52 °F 29.7 in SO 12.3 mph 22 mph 46.9% 0 in
20:24 73.4 °F 51.8 °F 29.7 in SO 12.3 mph 19 mph 47% 0 in
20:29 73.2 °F 51.8 °F 29.7 in SO 12.3 mph 20.8 mph 47% 0 in
20:34 73 °F 51.6 °F 29.7 in SO 11.3 mph 21 mph 47% 0 in
20:39 73 °F 51.6 °F 29.7 in SO 10.7 mph 20 mph 47% 0 in
20:44 72.9 °F 51.4 °F 29.7 in SO 10.4 mph 20 mph 47% 0 in
20:49 72.9 °F 51.4 °F 29.7 in SO 10.2 mph 21.9 mph 47% 0 in
20:54 73 °F 51.6 °F 29.7 in SO 10.8 mph 23.5 mph 47% 0 in
20:59 73.4 °F 51.8 °F 29.7 in SO 11.2 mph 26.5 mph 46.9% 0 in
21:04 73.4 °F 51.4 °F 29.7 in SO 12.8 mph 26 mph 46% 0 in
21:09 73.4 °F 51.3 °F 29.7 in SSO 13.5 mph 24.2 mph 45.8% 0 in
21:14 73.4 °F 50.7 °F 29.7 in SSO 12.9 mph 24 mph 45% 0 in
21:19 73.2 °F 50 °F 29.7 in SSO 12.5 mph 21.9 mph 44.1% 0 in
21:24 73 °F 49.8 °F 29.7 in SSO 11.9 mph 22 mph 44% 0 in
21:29 72.9 °F 49.6 °F 29.7 in SSO 11.4 mph 19 mph 44% 0 in
21:34 72.5 °F 49.3 °F 29.7 in SO 11.3 mph 20.8 mph 43.9% 0 in
21:39 72.7 °F 48.9 °F 29.7 in SO 11.2 mph 21.9 mph 43% 0 in
21:44 72.3 °F 48.6 °F 29.7 in SO 12.3 mph 22 mph 42.9% 0 in
21:49 72.1 °F 48 °F 29.7 in SO 13 mph 19 mph 42.4% 0 in
21:54 72 °F 47.8 °F 29.8 in SO 11.3 mph 21.9 mph 42.6% 0 in
21:59 71.8 °F 47.3 °F 29.8 in SO 10.2 mph 22 mph 41.9% 0 in
22:04 72 °F 46.6 °F 29.8 in SO 10.9 mph 26.8 mph 40.5% 0 in
22:09 72.1 °F 46 °F 29.8 in SO 11.2 mph 31.1 mph 39.3% 0 in
22:14 72.3 °F 45.5 °F 29.8 in SO 13.4 mph 31 mph 38.2% 0 in
22:19 72.3 °F 45.5 °F 29.8 in SO 14.7 mph 29 mph 38.4% 0 in
22:24 72 °F 46 °F 29.8 in SO 14.2 mph 24 mph 39.6% 0 in
22:29 71.6 °F 46 °F 29.8 in SO 14 mph 20 mph 40% 0 in
22:34 71.4 °F 45.9 °F 29.8 in SSO 12.6 mph 21.9 mph 40% 0 in
22:39 71.2 °F 45.7 °F 29.8 in SO 11.8 mph 22 mph 40% 0 in
22:44 71.1 °F 45.3 °F 29.8 in SO 11.6 mph 21 mph 40% 0 in
22:49 70.9 °F 44.6 °F 29.8 in SSO 11.4 mph 21.3 mph 38.9% 0 in
22:54 71.1 °F 44.1 °F 29.8 in SO 11.3 mph 21 mph 37.9% 0 in
22:59 71.1 °F 43.3 °F 29.8 in SSO 11.2 mph 27.6 mph 36.9% 0 in
23:04 71.1 °F 42.6 °F 29.8 in SSO 12.1 mph 28 mph 35.7% 0 in
23:09 71.2 °F 42.1 °F 29.8 in SSO 12.5 mph 23 mph 34.9% 0 in
23:14 71.2 °F 41.4 °F 29.8 in SO 13.1 mph 22 mph 34% 0 in
23:19 71.2 °F 40.8 °F 29.8 in SO 13.5 mph 24.2 mph 33.2% 0 in
23:24 71.2 °F 40.6 °F 29.8 in SO 13.8 mph 24.2 mph 33% 0 in
23:29 71.1 °F 40.5 °F 29.8 in OSO 14 mph 22 mph 32.9% 0 in
23:34 71.1 °F 39.7 °F 29.8 in SO 12.4 mph 21.3 mph 32.2% 0 in
23:39 70.9 °F 39.6 °F 29.8 in OSO 11.4 mph 21 mph 32% 0 in
23:44 70.7 °F 39.4 °F 29.8 in SO 11.3 mph 18 mph 32% 0 in
23:49 70.9 °F 39.4 °F 29.8 in SO 11.2 mph 21.3 mph 32% 0 in
23:54 70.9 °F 39.7 °F 29.8 in SO 11.3 mph 21 mph 32.2% 0 in
23:59 70.7 °F 40.3 °F 29.8 in SO 11.4 mph 21.9 mph 33% 0 in
Murcia-Puente Tocinos, España
Compliments of Weather Underground - 2.75 mb

La estación de MeteoMurcia.com, publica sus datos en los siguientes proyectos:

Weather Underground PWS IMURCIAP2 Meteoclimatic www.awekas.at

W3Counter
Web Analytics